Hauptseite
METAR-TAF:

METAR-TAF

Flughäfen :

Flughafen Republic

Farmingdale, New York, Vereinigte Staaten

Breite: 40-44-03N, Länge: 073-25-01W, Höhe: 24 m

Beobachtung

Neuester Wetterbericht von vor 25 Minuten, um 10:04 UTC
Wind 4 kt aus Süd
Temperatur 16°C
Luftfeuchtigkeit 88%
Luftdruck 1024 hPa
Sichtweite: 0.8 km
Nebel

METAR: KFRG 271004Z AUTO 18004KT 1/2SM FG VV002 16/14 A3024 RMK AO2 T01560139

Zeit: 06:29 (10:29 UTC)


TAF: fehlend

Wetterbeobachtungen und Prognosen von mehr als 4000 Flughäfen (METAR und TAF Bericht).

Die verfügbaren Stationen werden durch gelbe und rote Markierungen auf der Karte dargestellt.

Führen Sie die Maus auf sie, um den Namen der Station zu sehen.

Darauf klicken, um die Beobachtung von Wetterbeobachtungen und Prognosen zu sehen.

Um die Karte zu ändern : klicken Sie auf den grünen Tasten mit einem schwarzen Kreuz Zum Vergrößern, auf den grünen Button mit einem Gedankenstrich zu verkleinern, oder auf die grünen Pfeile für benachbarte Karten.


METAR-TAF: